sensor_id;sensor_type;location;lat;lon;timestamp;P1;durP1;ratioP1;P2;durP2;ratioP2
34541;SDS011;20784;51.332;12.410;2023-11-21T00:01:23;5.75;;;3.30;;
34541;SDS011;20784;51.332;12.410;2023-11-21T00:04:01;4.07;;;2.78;;
34541;SDS011;20784;51.332;12.410;2023-11-21T00:06:32;2.97;;;2.28;;
34541;SDS011;20784;51.332;12.410;2023-11-21T00:08:59;4.68;;;2.47;;
34541;SDS011;20784;51.332;12.410;2023-11-21T00:11:29;7.95;;;2.70;;
34541;SDS011;20784;51.332;12.410;2023-11-21T00:14:13;6.47;;;2.95;;
34541;SDS011;20784;51.332;12.410;2023-11-21T00:16:50;8.93;;;2.60;;
34541;SDS011;20784;51.332;12.410;2023-11-21T00:19:18;5.47;;;2.50;;
34541;SDS011;20784;51.332;12.410;2023-11-21T00:21:47;7.97;;;2.78;;
34541;SDS011;20784;51.332;12.410;2023-11-21T00:24:15;4.60;;;2.67;;
34541;SDS011;20784;51.332;12.410;2023-11-21T00:26:41;4.95;;;1.92;;
34541;SDS011;20784;51.332;12.410;2023-11-21T00:29:13;5.43;;;2.35;;
34541;SDS011;20784;51.332;12.410;2023-11-21T00:31:39;4.03;;;2.00;;
34541;SDS011;20784;51.332;12.410;2023-11-21T00:34:07;4.97;;;2.08;;
34541;SDS011;20784;51.332;12.410;2023-11-21T00:36:32;3.35;;;2.33;;
34541;SDS011;20784;51.332;12.410;2023-11-21T00:38:58;5.07;;;2.33;;
34541;SDS011;20784;51.332;12.410;2023-11-21T00:41:24;3.67;;;2.13;;
34541;SDS011;20784;51.332;12.410;2023-11-21T00:43:55;3.50;;;2.17;;
34541;SDS011;20784;51.332;12.410;2023-11-21T00:46:21;4.60;;;2.58;;
34541;SDS011;20784;51.332;12.410;2023-11-21T00:48:47;6.15;;;2.40;;
34541;SDS011;20784;51.332;12.410;2023-11-21T00:51:13;4.70;;;2.08;;
34541;SDS011;20784;51.332;12.410;2023-11-21T00:53:38;7.35;;;2.45;;
34541;SDS011;20784;51.332;12.410;2023-11-21T00:56:04;4.55;;;2.05;;
34541;SDS011;20784;51.332;12.410;2023-11-21T00:58:31;7.43;;;2.58;;
34541;SDS011;20784;51.332;12.410;2023-11-21T01:00:57;5.57;;;2.88;;
34541;SDS011;20784;51.332;12.410;2023-11-21T01:03:23;3.58;;;2.33;;
34541;SDS011;20784;51.332;12.410;2023-11-21T01:05:52;8.88;;;2.50;;
34541;SDS011;20784;51.332;12.410;2023-11-21T01:08:17;7.95;;;2.60;;
34541;SDS011;20784;51.332;12.410;2023-11-21T01:11:03;4.25;;;2.35;;
34541;SDS011;20784;51.332;12.410;2023-11-21T01:13:29;3.30;;;2.35;;
34541;SDS011;20784;51.332;12.410;2023-11-21T01:15:55;6.93;;;2.33;;
34541;SDS011;20784;51.332;12.410;2023-11-21T01:18:23;4.78;;;1.95;;
34541;SDS011;20784;51.332;12.410;2023-11-21T01:20:51;6.63;;;1.95;;
34541;SDS011;20784;51.332;12.410;2023-11-21T01:23:19;6.28;;;2.28;;
34541;SDS011;20784;51.332;12.410;2023-11-21T01:25:45;3.28;;;1.67;;
34541;SDS011;20784;51.332;12.410;2023-11-21T01:28:11;3.95;;;2.00;;
34541;SDS011;20784;51.332;12.410;2023-11-21T01:30:37;11.95;;;2.45;;
34541;SDS011;20784;51.332;12.410;2023-11-21T01:33:02;2.45;;;1.83;;
34541;SDS011;20784;51.332;12.410;2023-11-21T01:35:28;4.00;;;2.13;;
34541;SDS011;20784;51.332;12.410;2023-11-21T01:37:54;3.22;;;1.80;;
34541;SDS011;20784;51.332;12.410;2023-11-21T01:40:19;3.38;;;1.73;;
34541;SDS011;20784;51.332;12.410;2023-11-21T01:42:46;4.45;;;2.05;;
34541;SDS011;20784;51.332;12.410;2023-11-21T01:45:12;3.28;;;1.63;;
34541;SDS011;20784;51.332;12.410;2023-11-21T01:47:39;7.45;;;1.95;;
34541;SDS011;20784;51.332;12.410;2023-11-21T01:50:09;3.45;;;1.60;;
34541;SDS011;20784;51.332;12.410;2023-11-21T01:52:39;4.70;;;2.15;;
34541;SDS011;20784;51.332;12.410;2023-11-21T01:55:08;6.57;;;1.90;;
34541;SDS011;20784;51.332;12.410;2023-11-21T01:57:35;3.88;;;2.00;;
34541;SDS011;20784;51.332;12.410;2023-11-21T02:00:03;7.25;;;2.20;;
34541;SDS011;20784;51.332;12.410;2023-11-21T02:02:43;6.07;;;2.20;;
34541;SDS011;20784;51.332;12.410;2023-11-21T02:05:10;7.72;;;2.20;;
34541;SDS011;20784;51.332;12.410;2023-11-21T02:07:43;4.68;;;2.45;;
34541;SDS011;20784;51.332;12.410;2023-11-21T02:10:11;8.93;;;1.95;;
34541;SDS011;20784;51.332;12.410;2023-11-21T02:12:43;5.60;;;2.00;;
34541;SDS011;20784;51.332;12.410;2023-11-21T02:15:12;3.92;;;2.20;;
34541;SDS011;20784;51.332;12.410;2023-11-21T02:17:45;3.20;;;1.98;;
34541;SDS011;20784;51.332;12.410;2023-11-21T02:20:12;5.97;;;2.55;;
34541;SDS011;20784;51.332;12.410;2023-11-21T02:23:04;3.78;;;1.95;;
34541;SDS011;20784;51.332;12.410;2023-11-21T02:25:30;4.82;;;1.85;;
34541;SDS011;20784;51.332;12.410;2023-11-21T02:28:01;4.18;;;1.83;;
34541;SDS011;20784;51.332;12.410;2023-11-21T02:30:27;5.22;;;1.90;;
34541;SDS011;20784;51.332;12.410;2023-11-21T02:32:53;2.63;;;1.75;;
34541;SDS011;20784;51.332;12.410;2023-11-21T02:35:20;4.07;;;1.80;;
34541;SDS011;20784;51.332;12.410;2023-11-21T02:37:51;4.18;;;1.90;;
34541;SDS011;20784;51.332;12.410;2023-11-21T02:40:17;6.63;;;2.28;;
34541;SDS011;20784;51.332;12.410;2023-11-21T02:42:49;3.42;;;1.92;;
34541;SDS011;20784;51.332;12.410;2023-11-21T02:45:18;3.20;;;1.77;;
34541;SDS011;20784;51.332;12.410;2023-11-21T02:47:47;6.25;;;2.20;;
34541;SDS011;20784;51.332;12.410;2023-11-21T02:50:14;4.82;;;2.13;;
34541;SDS011;20784;51.332;12.410;2023-11-21T02:52:40;8.52;;;2.17;;
34541;SDS011;20784;51.332;12.410;2023-11-21T02:55:06;4.00;;;1.90;;
34541;SDS011;20784;51.332;12.410;2023-11-21T02:57:35;8.18;;;1.90;;
34541;SDS011;20784;51.332;12.410;2023-11-21T03:00:03;4.80;;;1.95;;
34541;SDS011;20784;51.332;12.410;2023-11-21T03:02:32;5.22;;;2.00;;
34541;SDS011;20784;51.332;12.410;2023-11-21T03:05:03;5.50;;;1.92;;
34541;SDS011;20784;51.332;12.410;2023-11-21T03:07:33;6.07;;;2.70;;
34541;SDS011;20784;51.332;12.410;2023-11-21T03:09:59;3.78;;;2.17;;
34541;SDS011;20784;51.332;12.410;2023-11-21T03:12:24;6.78;;;2.22;;
34541;SDS011;20784;51.332;12.410;2023-11-21T03:14:50;5.22;;;2.10;;
34541;SDS011;20784;51.332;12.410;2023-11-21T03:17:16;5.45;;;2.20;;
34541;SDS011;20784;51.332;12.410;2023-11-21T03:19:42;6.40;;;2.45;;
34541;SDS011;20784;51.332;12.410;2023-11-21T03:22:07;5.32;;;1.95;;
34541;SDS011;20784;51.332;12.410;2023-11-21T03:24:36;4.22;;;2.17;;
34541;SDS011;20784;51.332;12.410;2023-11-21T03:27:03;4.15;;;1.95;;
34541;SDS011;20784;51.332;12.410;2023-11-21T03:29:29;5.00;;;2.25;;
34541;SDS011;20784;51.332;12.410;2023-11-21T03:31:58;5.95;;;2.45;;
34541;SDS011;20784;51.332;12.410;2023-11-21T03:34:24;4.15;;;2.10;;
34541;SDS011;20784;51.332;12.410;2023-11-21T03:36:53;5.13;;;2.22;;
34541;SDS011;20784;51.332;12.410;2023-11-21T03:39:20;6.38;;;2.55;;
34541;SDS011;20784;51.332;12.410;2023-11-21T03:41:46;4.72;;;2.53;;
34541;SDS011;20784;51.332;12.410;2023-11-21T03:44:12;8.07;;;2.38;;
34541;SDS011;20784;51.332;12.410;2023-11-21T03:46:38;6.65;;;2.47;;
34541;SDS011;20784;51.332;12.410;2023-11-21T03:49:09;5.47;;;2.20;;
34541;SDS011;20784;51.332;12.410;2023-11-21T03:51:34;4.93;;;2.70;;
34541;SDS011;20784;51.332;12.410;2023-11-21T03:54:03;3.95;;;2.25;;
34541;SDS011;20784;51.332;12.410;2023-11-21T03:56:29;8.35;;;2.85;;
34541;SDS011;20784;51.332;12.410;2023-11-21T03:58:55;4.57;;;2.40;;
34541;SDS011;20784;51.332;12.410;2023-11-21T04:01:21;4.07;;;2.03;;
34541;SDS011;20784;51.332;12.410;2023-11-21T04:03:48;5.60;;;2.78;;
34541;SDS011;20784;51.332;12.410;2023-11-21T04:06:14;5.10;;;2.55;;
34541;SDS011;20784;51.332;12.410;2023-11-21T04:08:40;9.93;;;2.65;;
34541;SDS011;20784;51.332;12.410;2023-11-21T04:11:06;5.22;;;2.53;;
34541;SDS011;20784;51.332;12.410;2023-11-21T04:13:32;11.60;;;2.45;;
34541;SDS011;20784;51.332;12.410;2023-11-21T04:16:04;5.60;;;2.97;;
34541;SDS011;20784;51.332;12.410;2023-11-21T04:18:36;5.60;;;2.45;;
34541;SDS011;20784;51.332;12.410;2023-11-21T04:21:10;6.07;;;2.80;;
34541;SDS011;20784;51.332;12.410;2023-11-21T04:23:42;5.55;;;2.30;;
34541;SDS011;20784;51.332;12.410;2023-11-21T04:26:22;6.80;;;2.78;;
34541;SDS011;20784;51.332;12.410;2023-11-21T04:28:53;8.45;;;3.42;;
34541;SDS011;20784;51.332;12.410;2023-11-21T04:31:22;7.70;;;2.85;;
34541;SDS011;20784;51.332;12.410;2023-11-21T04:33:48;7.30;;;2.50;;
34541;SDS011;20784;51.332;12.410;2023-11-21T04:36:17;7.32;;;2.90;;
34541;SDS011;20784;51.332;12.410;2023-11-21T04:38:43;5.68;;;2.97;;
34541;SDS011;20784;51.332;12.410;2023-11-21T04:41:09;11.23;;;3.10;;
34541;SDS011;20784;51.332;12.410;2023-11-21T04:43:43;6.20;;;2.70;;
34541;SDS011;20784;51.332;12.410;2023-11-21T04:46:09;10.07;;;3.17;;
34541;SDS011;20784;51.332;12.410;2023-11-21T04:48:38;8.93;;;3.17;;
34541;SDS011;20784;51.332;12.410;2023-11-21T04:51:04;9.10;;;3.22;;
34541;SDS011;20784;51.332;12.410;2023-11-21T04:53:32;5.80;;;3.13;;
34541;SDS011;20784;51.332;12.410;2023-11-21T04:56:01;9.10;;;3.53;;
34541;SDS011;20784;51.332;12.410;2023-11-21T04:58:40;7.63;;;2.42;;
34541;SDS011;20784;51.332;12.410;2023-11-21T05:01:07;7.57;;;2.95;;
34541;SDS011;20784;51.332;12.410;2023-11-21T05:03:32;5.55;;;2.88;;
34541;SDS011;20784;51.332;12.410;2023-11-21T05:06:00;6.75;;;2.65;;
34541;SDS011;20784;51.332;12.410;2023-11-21T05:08:26;7.63;;;3.60;;
34541;SDS011;20784;51.332;12.410;2023-11-21T05:10:54;8.52;;;2.90;;
34541;SDS011;20784;51.332;12.410;2023-11-21T05:13:20;9.05;;;3.20;;
34541;SDS011;20784;51.332;12.410;2023-11-21T05:15:46;7.32;;;3.80;;
34541;SDS011;20784;51.332;12.410;2023-11-21T05:18:14;10.93;;;3.40;;
34541;SDS011;20784;51.332;12.410;2023-11-21T05:20:42;8.20;;;3.60;;
34541;SDS011;20784;51.332;12.410;2023-11-21T05:23:10;11.35;;;3.03;;
34541;SDS011;20784;51.332;12.410;2023-11-21T05:25:35;6.97;;;3.60;;
34541;SDS011;20784;51.332;12.410;2023-11-21T05:28:01;9.25;;;3.20;;
34541;SDS011;20784;51.332;12.410;2023-11-21T05:30:28;7.82;;;3.45;;
34541;SDS011;20784;51.332;12.410;2023-11-21T05:32:53;10.40;;;3.33;;
34541;SDS011;20784;51.332;12.410;2023-11-21T05:35:21;9.68;;;3.40;;
34541;SDS011;20784;51.332;12.410;2023-11-21T05:37:47;11.18;;;3.40;;
34541;SDS011;20784;51.332;12.410;2023-11-21T05:40:13;7.60;;;3.75;;
34541;SDS011;20784;51.332;12.410;2023-11-21T05:42:39;11.38;;;3.80;;
34541;SDS011;20784;51.332;12.410;2023-11-21T05:45:05;9.38;;;3.65;;
34541;SDS011;20784;51.332;12.410;2023-11-21T05:50:04;7.72;;;3.60;;
34541;SDS011;20784;51.332;12.410;2023-11-21T05:52:30;9.02;;;4.65;;
34541;SDS011;20784;51.332;12.410;2023-11-21T05:54:57;11.23;;;3.88;;
34541;SDS011;20784;51.332;12.410;2023-11-21T05:57:23;9.63;;;4.28;;
34541;SDS011;20784;51.332;12.410;2023-11-21T05:59:49;13.07;;;4.28;;
34541;SDS011;20784;51.332;12.410;2023-11-21T06:02:14;12.55;;;4.00;;
34541;SDS011;20784;51.332;12.410;2023-11-21T06:04:40;9.75;;;3.75;;
34541;SDS011;20784;51.332;12.410;2023-11-21T06:07:06;10.52;;;4.43;;
34541;SDS011;20784;51.332;12.410;2023-11-21T06:09:32;13.07;;;3.60;;
34541;SDS011;20784;51.332;12.410;2023-11-21T06:11:57;8.63;;;3.67;;
34541;SDS011;20784;51.332;12.410;2023-11-21T06:14:23;8.45;;;3.38;;
34541;SDS011;20784;51.332;12.410;2023-11-21T06:16:52;11.10;;;3.97;;
34541;SDS011;20784;51.332;12.410;2023-11-21T06:19:18;14.82;;;4.65;;
34541;SDS011;20784;51.332;12.410;2023-11-21T06:21:47;11.88;;;4.75;;
34541;SDS011;20784;51.332;12.410;2023-11-21T06:24:15;12.05;;;5.10;;
34541;SDS011;20784;51.332;12.410;2023-11-21T06:26:41;9.63;;;4.70;;
34541;SDS011;20784;51.332;12.410;2023-11-21T06:29:09;10.05;;;4.75;;
34541;SDS011;20784;51.332;12.410;2023-11-21T06:31:36;9.68;;;4.53;;
34541;SDS011;20784;51.332;12.410;2023-11-21T06:34:02;10.70;;;5.22;;
34541;SDS011;20784;51.332;12.410;2023-11-21T06:36:28;16.50;;;5.32;;
34541;SDS011;20784;51.332;12.410;2023-11-21T06:38:54;14.32;;;5.15;;
34541;SDS011;20784;51.332;12.410;2023-11-21T06:41:35;12.50;;;5.55;;
34541;SDS011;20784;51.332;12.410;2023-11-21T06:44:07;11.10;;;5.80;;
34541;SDS011;20784;51.332;12.410;2023-11-21T06:46:38;20.55;;;6.82;;
34541;SDS011;20784;51.332;12.410;2023-11-21T06:49:07;11.95;;;6.05;;
34541;SDS011;20784;51.332;12.410;2023-11-21T06:51:40;9.23;;;5.03;;
34541;SDS011;20784;51.332;12.410;2023-11-21T06:54:13;9.20;;;5.05;;
34541;SDS011;20784;51.332;12.410;2023-11-21T06:56:41;12.13;;;5.60;;
34541;SDS011;20784;51.332;12.410;2023-11-21T06:59:07;14.55;;;5.55;;
34541;SDS011;20784;51.332;12.410;2023-11-21T07:01:34;11.30;;;5.53;;
34541;SDS011;20784;51.332;12.410;2023-11-21T07:04:06;9.55;;;5.55;;
34541;SDS011;20784;51.332;12.410;2023-11-21T07:06:33;13.38;;;6.18;;
34541;SDS011;20784;51.332;12.410;2023-11-21T07:09:02;12.27;;;6.35;;
34541;SDS011;20784;51.332;12.410;2023-11-21T07:11:33;15.13;;;5.95;;
34541;SDS011;20784;51.332;12.410;2023-11-21T07:13:59;11.65;;;5.35;;
34541;SDS011;20784;51.332;12.410;2023-11-21T07:16:34;15.05;;;5.90;;
34541;SDS011;20784;51.332;12.410;2023-11-21T07:19:02;11.70;;;6.38;;
34541;SDS011;20784;51.332;12.410;2023-11-21T07:21:33;16.92;;;5.60;;
34541;SDS011;20784;51.332;12.410;2023-11-21T07:24:03;9.75;;;6.13;;
34541;SDS011;20784;51.332;12.410;2023-11-21T07:26:30;13.90;;;6.38;;
34541;SDS011;20784;51.332;12.410;2023-11-21T07:28:55;13.40;;;6.32;;
34541;SDS011;20784;51.332;12.410;2023-11-21T07:31:27;10.52;;;6.28;;
34541;SDS011;20784;51.332;12.410;2023-11-21T07:36:46;11.02;;;6.15;;
34541;SDS011;20784;51.332;12.410;2023-11-21T07:39:17;16.33;;;7.38;;
34541;SDS011;20784;51.332;12.410;2023-11-21T07:41:45;15.00;;;8.18;;
34541;SDS011;20784;51.332;12.410;2023-11-21T07:44:16;15.80;;;9.40;;
34541;SDS011;20784;51.332;12.410;2023-11-21T07:46:42;22.38;;;10.23;;
34541;SDS011;20784;51.332;12.410;2023-11-21T07:49:09;23.15;;;11.70;;
34541;SDS011;20784;51.332;12.410;2023-11-21T07:51:45;22.85;;;12.57;;
34541;SDS011;20784;51.332;12.410;2023-11-21T07:54:14;24.33;;;13.18;;
34541;SDS011;20784;51.332;12.410;2023-11-21T07:56:41;22.63;;;12.50;;
34541;SDS011;20784;51.332;12.410;2023-11-21T07:59:10;27.95;;;13.95;;
34541;SDS011;20784;51.332;12.410;2023-11-21T08:01:39;25.35;;;12.45;;
34541;SDS011;20784;51.332;12.410;2023-11-21T08:04:08;19.33;;;11.85;;
34541;SDS011;20784;51.332;12.410;2023-11-21T08:06:34;17.55;;;10.43;;
34541;SDS011;20784;51.332;12.410;2023-11-21T08:09:00;23.33;;;12.10;;
34541;SDS011;20784;51.332;12.410;2023-11-21T08:11:28;24.63;;;12.02;;
34541;SDS011;20784;51.332;12.410;2023-11-21T08:13:56;18.52;;;11.07;;
34541;SDS011;20784;51.332;12.410;2023-11-21T08:16:24;17.73;;;10.60;;
34541;SDS011;20784;51.332;12.410;2023-11-21T08:18:55;14.63;;;9.45;;
34541;SDS011;20784;51.332;12.410;2023-11-21T08:21:21;15.57;;;9.95;;
34541;SDS011;20784;51.332;12.410;2023-11-21T08:23:49;27.40;;;9.57;;
34541;SDS011;20784;51.332;12.410;2023-11-21T08:26:24;13.77;;;8.45;;
34541;SDS011;20784;51.332;12.410;2023-11-21T08:28:55;17.08;;;8.88;;
34541;SDS011;20784;51.332;12.410;2023-11-21T08:31:30;14.05;;;7.55;;
34541;SDS011;20784;51.332;12.410;2023-11-21T08:33:58;13.45;;;7.88;;
34541;SDS011;20784;51.332;12.410;2023-11-21T08:36:28;11.95;;;7.20;;
34541;SDS011;20784;51.332;12.410;2023-11-21T08:38:53;11.07;;;6.95;;
34541;SDS011;20784;51.332;12.410;2023-11-21T08:41:22;13.93;;;7.75;;
34541;SDS011;20784;51.332;12.410;2023-11-21T08:43:50;14.18;;;8.27;;
34541;SDS011;20784;51.332;12.410;2023-11-21T08:46:21;12.20;;;7.22;;
34541;SDS011;20784;51.332;12.410;2023-11-21T08:48:46;13.02;;;7.38;;
34541;SDS011;20784;51.332;12.410;2023-11-21T08:51:12;10.57;;;7.00;;
34541;SDS011;20784;51.332;12.410;2023-11-21T08:53:46;11.45;;;6.95;;
34541;SDS011;20784;51.332;12.410;2023-11-21T08:56:15;14.15;;;6.43;;
34541;SDS011;20784;51.332;12.410;2023-11-21T08:58:43;9.63;;;6.47;;
34541;SDS011;20784;51.332;12.410;2023-11-21T09:01:14;12.57;;;7.22;;
34541;SDS011;20784;51.332;12.410;2023-11-21T09:03:40;10.57;;;6.15;;
34541;SDS011;20784;51.332;12.410;2023-11-21T09:06:06;10.52;;;6.70;;
34541;SDS011;20784;51.332;12.410;2023-11-21T09:08:37;9.90;;;6.63;;
34541;SDS011;20784;51.332;12.410;2023-11-21T09:11:03;10.82;;;7.15;;
34541;SDS011;20784;51.332;12.410;2023-11-21T09:13:37;11.60;;;6.97;;
34541;SDS011;20784;51.332;12.410;2023-11-21T09:16:03;10.52;;;6.80;;
34541;SDS011;20784;51.332;12.410;2023-11-21T09:18:29;11.27;;;7.22;;
34541;SDS011;20784;51.332;12.410;2023-11-21T09:20:55;10.93;;;6.65;;
34541;SDS011;20784;51.332;12.410;2023-11-21T09:23:21;16.25;;;7.13;;
34541;SDS011;20784;51.332;12.410;2023-11-21T09:25:47;11.05;;;7.13;;
34541;SDS011;20784;51.332;12.410;2023-11-21T09:28:22;14.18;;;8.43;;
34541;SDS011;20784;51.332;12.410;2023-11-21T09:30:51;10.63;;;6.65;;
34541;SDS011;20784;51.332;12.410;2023-11-21T09:33:20;10.57;;;6.60;;
34541;SDS011;20784;51.332;12.410;2023-11-21T09:35:47;10.55;;;5.97;;
34541;SDS011;20784;51.332;12.410;2023-11-21T09:38:15;12.57;;;6.90;;
34541;SDS011;20784;51.332;12.410;2023-11-21T09:40:41;8.93;;;6.25;;
34541;SDS011;20784;51.332;12.410;2023-11-21T09:43:17;9.18;;;6.05;;
34541;SDS011;20784;51.332;12.410;2023-11-21T09:46:10;9.60;;;5.85;;
34541;SDS011;20784;51.332;12.410;2023-11-21T09:48:41;11.07;;;6.88;;
34541;SDS011;20784;51.332;12.410;2023-11-21T09:51:08;13.05;;;7.82;;
34541;SDS011;20784;51.332;12.410;2023-11-21T09:53:41;19.08;;;11.60;;
34541;SDS011;20784;51.332;12.410;2023-11-21T09:56:12;13.13;;;8.18;;
34541;SDS011;20784;51.332;12.410;2023-11-21T09:58:44;9.63;;;6.28;;
34541;SDS011;20784;51.332;12.410;2023-11-21T10:01:10;12.32;;;6.25;;
34541;SDS011;20784;51.332;12.410;2023-11-21T10:03:39;11.00;;;6.28;;
34541;SDS011;20784;51.332;12.410;2023-11-21T10:06:07;9.98;;;6.72;;
34541;SDS011;20784;51.332;12.410;2023-11-21T10:08:34;10.30;;;6.65;;
34541;SDS011;20784;51.332;12.410;2023-11-21T10:11:01;14.18;;;7.18;;
34541;SDS011;20784;51.332;12.410;2023-11-21T10:13:31;11.82;;;6.60;;
34541;SDS011;20784;51.332;12.410;2023-11-21T10:16:02;8.43;;;6.10;;
34541;SDS011;20784;51.332;12.410;2023-11-21T10:18:34;12.27;;;6.13;;
34541;SDS011;20784;51.332;12.410;2023-11-21T10:21:03;8.45;;;5.53;;
34541;SDS011;20784;51.332;12.410;2023-11-21T10:23:32;9.30;;;6.40;;
34541;SDS011;20784;51.332;12.410;2023-11-21T10:25:58;8.48;;;5.13;;
34541;SDS011;20784;51.332;12.410;2023-11-21T10:28:25;7.03;;;4.88;;
34541;SDS011;20784;51.332;12.410;2023-11-21T10:30:53;8.77;;;5.88;;
34541;SDS011;20784;51.332;12.410;2023-11-21T10:33:21;9.40;;;5.25;;
34541;SDS011;20784;51.332;12.410;2023-11-21T10:35:53;11.07;;;5.53;;
34541;SDS011;20784;51.332;12.410;2023-11-21T10:38:20;8.98;;;5.35;;
34541;SDS011;20784;51.332;12.410;2023-11-21T10:40:47;10.30;;;4.82;;
34541;SDS011;20784;51.332;12.410;2023-11-21T10:43:17;8.27;;;5.30;;
34541;SDS011;20784;51.332;12.410;2023-11-21T10:45:43;9.13;;;5.45;;
34541;SDS011;20784;51.332;12.410;2023-11-21T10:48:15;9.07;;;5.63;;
34541;SDS011;20784;51.332;12.410;2023-11-21T10:50:42;7.85;;;5.32;;
34541;SDS011;20784;51.332;12.410;2023-11-21T10:53:09;12.63;;;5.93;;
34541;SDS011;20784;51.332;12.410;2023-11-21T10:55:50;13.23;;;6.40;;
34541;SDS011;20784;51.332;12.410;2023-11-21T10:58:26;11.65;;;5.85;;
34541;SDS011;20784;51.332;12.410;2023-11-21T11:00:52;8.98;;;5.75;;
34541;SDS011;20784;51.332;12.410;2023-11-21T11:03:18;11.30;;;6.13;;
34541;SDS011;20784;51.332;12.410;2023-11-21T11:05:48;10.57;;;6.40;;
34541;SDS011;20784;51.332;12.410;2023-11-21T11:08:18;9.38;;;5.85;;
34541;SDS011;20784;51.332;12.410;2023-11-21T11:10:59;13.77;;;6.90;;
34541;SDS011;20784;51.332;12.410;2023-11-21T11:13:25;14.20;;;7.28;;
34541;SDS011;20784;51.332;12.410;2023-11-21T11:15:59;12.88;;;7.25;;
34541;SDS011;20784;51.332;12.410;2023-11-21T11:18:37;11.82;;;6.90;;
34541;SDS011;20784;51.332;12.410;2023-11-21T11:21:21;11.27;;;6.28;;
34541;SDS011;20784;51.332;12.410;2023-11-21T11:26:56;12.50;;;6.65;;
34541;SDS011;20784;51.332;12.410;2023-11-21T11:38:20;19.67;;;10.48;;
34541;SDS011;20784;51.332;12.410;2023-11-21T11:41:10;20.90;;;11.00;;
34541;SDS011;20784;51.332;12.410;2023-11-21T11:54:14;19.25;;;10.95;;
34541;SDS011;20784;51.332;12.410;2023-11-21T11:57:05;21.33;;;11.88;;
34541;SDS011;20784;51.332;12.410;2023-11-21T12:02:36;20.60;;;10.32;;
34541;SDS011;20784;51.332;12.410;2023-11-21T12:05:11;18.42;;;9.70;;
34541;SDS011;20784;51.332;12.410;2023-11-21T12:07:51;15.95;;;9.30;;
34541;SDS011;20784;51.332;12.410;2023-11-21T12:10:31;13.45;;;7.25;;
34541;SDS011;20784;51.332;12.410;2023-11-21T12:12:59;14.75;;;7.65;;
34541;SDS011;20784;51.332;12.410;2023-11-21T12:15:40;14.13;;;7.35;;
34541;SDS011;20784;51.332;12.410;2023-11-21T12:18:19;11.02;;;6.78;;
34541;SDS011;20784;51.332;12.410;2023-11-21T12:20:51;12.95;;;6.80;;
34541;SDS011;20784;51.332;12.410;2023-11-21T12:23:27;10.20;;;6.20;;
34541;SDS011;20784;51.332;12.410;2023-11-21T12:26:04;11.63;;;6.65;;
34541;SDS011;20784;51.332;12.410;2023-11-21T12:28:32;12.52;;;6.25;;
34541;SDS011;20784;51.332;12.410;2023-11-21T12:31:10;11.73;;;5.88;;
34541;SDS011;20784;51.332;12.410;2023-11-21T12:33:46;9.88;;;5.03;;
34541;SDS011;20784;51.332;12.410;2023-11-21T12:36:36;7.18;;;4.65;;
34541;SDS011;20784;51.332;12.410;2023-11-21T12:39:07;7.80;;;4.50;;
34541;SDS011;20784;51.332;12.410;2023-11-21T12:41:56;9.10;;;5.13;;
34541;SDS011;20784;51.332;12.410;2023-11-21T12:44:35;9.45;;;5.55;;
34541;SDS011;20784;51.332;12.410;2023-11-21T12:47:59;8.95;;;4.97;;
34541;SDS011;20784;51.332;12.410;2023-11-21T12:50:32;9.80;;;5.90;;
34541;SDS011;20784;51.332;12.410;2023-11-21T12:53:27;11.80;;;6.63;;
34541;SDS011;20784;51.332;12.410;2023-11-21T12:56:02;13.93;;;7.20;;
34541;SDS011;20784;51.332;12.410;2023-11-21T12:58:48;13.82;;;7.90;;
34541;SDS011;20784;51.332;12.410;2023-11-21T13:01:17;25.85;;;8.50;;
34541;SDS011;20784;51.332;12.410;2023-11-21T13:03:49;18.35;;;8.90;;
34541;SDS011;20784;51.332;12.410;2023-11-21T13:06:45;22.23;;;8.70;;
34541;SDS011;20784;51.332;12.410;2023-11-21T13:09:19;17.00;;;8.80;;
34541;SDS011;20784;51.332;12.410;2023-11-21T13:11:49;18.77;;;9.68;;
34541;SDS011;20784;51.332;12.410;2023-11-21T13:14:34;17.75;;;8.55;;
34541;SDS011;20784;51.332;12.410;2023-11-21T13:17:28;16.33;;;8.63;;
34541;SDS011;20784;51.332;12.410;2023-11-21T13:19:57;17.90;;;8.77;;
34541;SDS011;20784;51.332;12.410;2023-11-21T13:22:23;16.10;;;8.30;;
34541;SDS011;20784;51.332;12.410;2023-11-21T13:24:53;15.52;;;8.43;;
34541;SDS011;20784;51.332;12.410;2023-11-21T13:27:22;15.68;;;8.48;;
34541;SDS011;20784;51.332;12.410;2023-11-21T13:29:59;16.83;;;8.30;;
34541;SDS011;20784;51.332;12.410;2023-11-21T13:35:05;14.20;;;9.18;;
34541;SDS011;20784;51.332;12.410;2023-11-21T13:38:08;15.30;;;9.00;;
34541;SDS011;20784;51.332;12.410;2023-11-21T13:40:38;16.13;;;9.38;;
34541;SDS011;20784;51.332;12.410;2023-11-21T13:43:13;14.82;;;8.25;;
34541;SDS011;20784;51.332;12.410;2023-11-21T13:45:40;18.45;;;9.20;;
34541;SDS011;20784;51.332;12.410;2023-11-21T13:48:15;16.58;;;9.15;;
34541;SDS011;20784;51.332;12.410;2023-11-21T13:51:05;14.05;;;8.40;;
34541;SDS011;20784;51.332;12.410;2023-11-21T13:53:48;14.68;;;8.00;;
34541;SDS011;20784;51.332;12.410;2023-11-21T13:56:21;13.68;;;7.68;;
34541;SDS011;20784;51.332;12.410;2023-11-21T13:58:52;11.18;;;6.82;;
34541;SDS011;20784;51.332;12.410;2023-11-21T14:01:22;15.27;;;7.20;;
34541;SDS011;20784;51.332;12.410;2023-11-21T14:03:55;11.25;;;7.05;;
34541;SDS011;20784;51.332;12.410;2023-11-21T14:06:38;9.85;;;6.38;;
34541;SDS011;20784;51.332;12.410;2023-11-21T14:09:15;11.30;;;6.70;;
34541;SDS011;20784;51.332;12.410;2023-11-21T14:11:53;14.60;;;7.57;;
34541;SDS011;20784;51.332;12.410;2023-11-21T14:14:25;12.20;;;7.57;;
34541;SDS011;20784;51.332;12.410;2023-11-21T14:16:53;11.07;;;6.97;;
34541;SDS011;20784;51.332;12.410;2023-11-21T14:19:23;10.48;;;5.80;;
34541;SDS011;20784;51.332;12.410;2023-11-21T14:21:58;10.60;;;6.18;;
34541;SDS011;20784;51.332;12.410;2023-11-21T14:24:27;10.60;;;6.93;;
34541;SDS011;20784;51.332;12.410;2023-11-21T14:26:58;9.85;;;6.05;;
34541;SDS011;20784;51.332;12.410;2023-11-21T14:29:27;9.52;;;5.75;;
34541;SDS011;20784;51.332;12.410;2023-11-21T14:34:23;8.32;;;5.20;;
34541;SDS011;20784;51.332;12.410;2023-11-21T14:36:58;8.10;;;5.03;;
34541;SDS011;20784;51.332;12.410;2023-11-21T14:39:30;9.00;;;4.88;;
34541;SDS011;20784;51.332;12.410;2023-11-21T14:42:11;7.68;;;4.68;;
34541;SDS011;20784;51.332;12.410;2023-11-21T14:44:49;6.57;;;4.37;;
34541;SDS011;20784;51.332;12.410;2023-11-21T14:47:30;7.85;;;4.50;;
34541;SDS011;20784;51.332;12.410;2023-11-21T14:50:18;9.20;;;4.82;;
34541;SDS011;20784;51.332;12.410;2023-11-21T14:53:13;10.95;;;6.03;;
34541;SDS011;20784;51.332;12.410;2023-11-21T14:58:51;9.45;;;4.50;;
34541;SDS011;20784;51.332;12.410;2023-11-21T15:01:21;9.27;;;4.70;;
34541;SDS011;20784;51.332;12.410;2023-11-21T15:04:11;6.83;;;4.50;;
34541;SDS011;20784;51.332;12.410;2023-11-21T15:06:49;8.00;;;5.05;;
34541;SDS011;20784;51.332;12.410;2023-11-21T15:09:27;8.65;;;4.43;;
34541;SDS011;20784;51.332;12.410;2023-11-21T15:12:04;6.47;;;3.97;;
34541;SDS011;20784;51.332;12.410;2023-11-21T15:14:51;7.07;;;3.97;;
34541;SDS011;20784;51.332;12.410;2023-11-21T15:17:25;7.13;;;4.07;;
34541;SDS011;20784;51.332;12.410;2023-11-21T15:20:04;10.57;;;5.97;;
34541;SDS011;20784;51.332;12.410;2023-11-21T15:23:41;5.78;;;4.30;;
34541;SDS011;20784;51.332;12.410;2023-11-21T15:26:23;4.90;;;3.75;;
34541;SDS011;20784;51.332;12.410;2023-11-21T15:28:49;6.38;;;4.18;;